Time;durP1;ratioP1;P1;durP2;ratioP2;P2;SDS_P1;SDS_P2;PMS_P1;PMS_P2;Temp;Humidity;BMP_temperature;BMP_pressure;BME280_temperature;BME280_humidity;BME280_pressure;Samples;Min_cycle;Max_cycle;Signal;HPM_P1;HPM_P2
2022/12/11 00:09:31;;;;;;;;;;;-0.60;99.90;;;;;;6339743;22;19922;-92
2022/12/11 00:11:56;;;;;;;;;;;-0.70;99.90;;;;;;6286961;22;20250;-91
2022/12/11 00:14:22;;;;;;;;;;;-0.60;99.90;;;;;;6286562;22;19921;-94
2022/12/11 00:16:48;;;;;;;;;;;-0.60;99.90;;;;;;6286618;22;19915;-91
2022/12/11 00:19:14;;;;;;;;;;;-0.60;99.90;;;;;;6286542;22;19911;-93
2022/12/11 00:22:02;;;;;;;;;;;-0.60;99.90;;;;;;6287582;22;19938;-93
2022/12/11 00:24:27;;;;;;;;;;;-0.50;99.90;;;;;;6312591;22;20247;-92
2022/12/11 00:26:53;;;;;;;;;;;-0.60;99.90;;;;;;6286560;22;19919;-92
2022/12/11 00:29:19;;;;;;;;;;;-0.60;99.90;;;;;;6286789;22;19910;-93
2022/12/11 01:44:26;;;;;;;;;;;-0.30;99.90;;;;;;6404066;22;19913;-91
2022/12/11 01:46:52;;;;;;;;;;;-0.30;99.90;;;;;;6382627;22;19914;-90
2022/12/11 01:49:19;;;;;;;;;;;-0.30;99.90;;;;;;6384937;22;20224;-89
2022/12/11 01:51:50;;;;;;;;;;;-0.30;99.90;;;;;;6380741;22;19929;-89
2022/12/11 01:54:34;;;;;;;;;;;-0.30;99.90;;;;;;6382858;22;19921;-94
2022/12/11 01:57:02;;;;;;;;;;;-0.30;99.90;;;;;;6403625;22;19914;-94
2022/12/11 01:59:29;;;;;;;;;;;-0.30;99.90;;;;;;6376621;22;20318;-91
2022/12/11 02:02:16;;;;;;;;;;;-0.30;99.90;;;;;;6402858;22;19943;-90
2022/12/11 02:04:42;;;;;;;;;;;-0.20;99.90;;;;;;6376907;22;19921;-89
2022/12/11 02:14:14;;;;;;;;;;;-0.20;99.90;;;;;;6415751;22;20361;-94
2022/12/11 02:16:44;;;;;;;;;;;-0.20;99.90;;;;;;6415305;22;19945;-94
2022/12/11 02:19:25;;;;;;;;;;;-0.20;99.90;;;;;;6389348;22;19910;-93
2022/12/11 02:21:52;;;;;;;;;;;-0.20;99.90;;;;;;6389369;22;19959;-92
2022/12/11 02:24:37;;;;;;;;;;;-0.20;99.90;;;;;;6389602;22;19910;-94
2022/12/11 02:27:10;;;;;;;;;;;-0.20;99.90;;;;;;6389476;22;19914;-92
2022/12/11 02:29:38;;;;;;;;;;;-0.20;99.90;;;;;;6389931;22;19914;-91
2022/12/11 02:32:07;;;;;;;;;;;-0.20;99.90;;;;;;6389041;22;19914;-94
2022/12/11 02:34:52;;;;;;;;;;;-0.20;99.90;;;;;;6391522;22;19914;-92
2022/12/11 02:59:45;;;;;;;;;;;-0.10;99.90;;;;;;6401910;22;19914;-89
2022/12/11 03:02:14;;;;;;;;;;;-0.10;99.90;;;;;;6375973;22;19918;-89
2022/12/11 03:04:41;;;;;;;;;;;-0.10;99.90;;;;;;6349651;22;19910;-90
2022/12/11 03:07:14;;;;;;;;;;;-0.10;99.90;;;;;;6376349;22;19975;-87
2022/12/11 03:09:44;;;;;;;;;;;-0.10;99.90;;;;;;6375657;22;19909;-90
2022/12/11 03:43:15;;;;;;;;;;;0.10;99.90;;;;;;6377055;22;19942;-91
2022/12/11 03:53:27;;;;;;;;;;;0.10;99.90;;;;;;6391589;22;19914;-91
2022/12/11 03:55:53;;;;;;;;;;;0.10;99.90;;;;;;6389612;22;19913;-91
2022/12/11 03:58:19;;;;;;;;;;;0.20;99.90;;;;;;6388767;22;19905;-90
2022/12/11 04:00:49;;;;;;;;;;;0.10;99.90;;;;;;6413998;22;19914;-91
2022/12/11 04:03:16;;;;;;;;;;;0.20;99.90;;;;;;6389880;22;19920;-91
2022/12/11 04:05:51;;;;;;;;;;;0.20;99.90;;;;;;6389102;22;19914;-91
2022/12/11 04:13:27;;;;;;;;;;;0.20;99.90;;;;;;6370166;22;20239;-90
2022/12/11 04:15:53;;;;;;;;;;;0.20;99.90;;;;;;6331096;22;19914;-91
2022/12/11 04:24:25;;;;;;;;;;;0.30;99.90;;;;;;6358051;22;19914;-90
2022/12/11 04:26:50;;;;;;;;;;;0.20;99.90;;;;;;6332046;22;19946;-91
2022/12/11 04:29:16;;;;;;;;;;;0.20;99.90;;;;;;6333009;22;19914;-92
2022/12/11 05:36:18;;;;;;;;;;;0.40;99.90;;;;;;6402268;22;19993;-91
2022/12/11 05:38:44;;;;;;;;;;;0.40;99.90;;;;;;6377053;22;19914;-89
2022/12/11 05:41:12;;;;;;;;;;;0.30;99.90;;;;;;6376755;22;19920;-94
2022/12/11 05:43:37;;;;;;;;;;;0.40;99.90;;;;;;6376945;22;19914;-91
2022/12/11 05:46:04;;;;;;;;;;;0.30;99.90;;;;;;6403323;22;19921;-90
2022/12/11 05:55:04;;;;;;;;;;;0.30;99.90;;;;;;6403212;22;19962;-91
2022/12/11 05:57:30;;;;;;;;;;;0.30;99.90;;;;;;6350136;22;19917;-91
2022/12/11 05:59:56;;;;;;;;;;;0.40;99.90;;;;;;6377054;22;19914;-91
2022/12/11 06:02:21;;;;;;;;;;;0.40;99.90;;;;;;6350360;22;19914;-89
2022/12/11 06:04:47;;;;;;;;;;;0.30;99.90;;;;;;6376396;22;19949;-91
2022/12/11 06:07:12;;;;;;;;;;;0.40;99.90;;;;;;6376469;22;19913;-90
2022/12/11 06:10:00;;;;;;;;;;;0.40;99.90;;;;;;6351020;22;20327;-90
2022/12/11 06:12:27;;;;;;;;;;;0.40;99.90;;;;;;6376437;22;19953;-90
2022/12/11 06:14:52;;;;;;;;;;;0.40;99.90;;;;;;6350232;22;19914;-90
2022/12/11 06:17:18;;;;;;;;;;;0.40;99.90;;;;;;6376476;22;19921;-89
2022/12/11 06:19:43;;;;;;;;;;;0.40;99.90;;;;;;6376283;22;19995;-89
2022/12/11 06:22:09;;;;;;;;;;;0.40;99.90;;;;;;6349792;22;19981;-89
2022/12/11 06:24:54;;;;;;;;;;;0.30;99.90;;;;;;6376093;22;19914;-89
2022/12/11 06:27:20;;;;;;;;;;;0.40;99.90;;;;;;6402617;22;19945;-88
2022/12/11 06:29:45;;;;;;;;;;;0.40;99.90;;;;;;6349598;22;19918;-87
2022/12/11 06:32:11;;;;;;;;;;;0.40;99.90;;;;;;6375920;22;19914;-87
2022/12/11 06:34:36;;;;;;;;;;;0.30;99.90;;;;;;6375645;22;19914;-88
2022/12/11 06:37:02;;;;;;;;;;;0.30;99.90;;;;;;6375324;22;20012;-87
2022/12/11 06:43:21;;;;;;;;;;;0.30;99.90;;;;;;6411027;22;19916;-96
2022/12/11 06:45:47;;;;;;;;;;;0.30;99.90;;;;;;6402424;22;19917;-95
2022/12/11 06:48:13;;;;;;;;;;;0.30;99.90;;;;;;6427355;22;19949;-93
2022/12/11 06:50:38;;;;;;;;;;;0.30;99.90;;;;;;6401387;22;19975;-96
2022/12/11 06:53:04;;;;;;;;;;;0.30;99.90;;;;;;6374310;22;19907;-92
2022/12/11 06:55:30;;;;;;;;;;;0.30;99.90;;;;;;6401174;22;19914;-95
2022/12/11 07:00:31;;;;;;;;;;;0.40;99.90;;;;;;6340151;22;19915;-92
2022/12/11 07:02:56;;;;;;;;;;;0.40;99.90;;;;;;6287117;22;19921;-92
2022/12/11 07:05:22;;;;;;;;;;;0.30;99.90;;;;;;6261743;22;19937;-89
2022/12/11 07:07:48;;;;;;;;;;;0.30;99.90;;;;;;6287118;22;20225;-89
2022/12/11 07:10:13;;;;;;;;;;;0.30;99.90;;;;;;6261614;22;19915;-91
2022/12/11 07:19:26;;;;;;;;;;;0.40;99.90;;;;;;6340634;22;20247;-90
2022/12/11 07:21:52;;;;;;;;;;;0.40;99.90;;;;;;6286929;22;19942;-90
2022/12/11 07:24:18;;;;;;;;;;;0.40;99.90;;;;;;6287219;22;20346;-91
2022/12/11 07:26:43;;;;;;;;;;;0.40;99.90;;;;;;6286934;22;19915;-88
2022/12/11 07:29:09;;;;;;;;;;;0.30;99.90;;;;;;6286977;22;19915;-92
2022/12/11 07:31:35;;;;;;;;;;;0.30;99.90;;;;;;6286808;22;19914;-91
2022/12/11 07:34:19;;;;;;;;;;;0.40;99.90;;;;;;6288052;22;19914;-88
2022/12/11 07:36:44;;;;;;;;;;;0.30;99.90;;;;;;6287249;22;19914;-91
2022/12/11 07:39:11;;;;;;;;;;;0.40;99.90;;;;;;6261516;22;20408;-90
2022/12/11 07:41:37;;;;;;;;;;;0.40;99.90;;;;;;6287264;22;19960;-91
2022/12/11 07:44:28;;;;;;;;;;;0.40;99.90;;;;;;6287435;22;19914;-90
2022/12/11 07:47:16;;;;;;;;;;;0.40;99.90;;;;;;6313608;22;19915;-91
2022/12/11 07:49:41;;;;;;;;;;;0.40;99.90;;;;;;6312999;22;19936;-92
2022/12/11 07:52:07;;;;;;;;;;;0.40;99.90;;;;;;6287116;22;19914;-90
2022/12/11 07:54:32;;;;;;;;;;;0.30;99.90;;;;;;6286460;22;20002;-89
2022/12/11 07:56:58;;;;;;;;;;;0.40;99.90;;;;;;6286876;22;19914;-90
2022/12/11 07:59:24;;;;;;;;;;;0.40;99.90;;;;;;6286080;22;19938;-90
2022/12/11 08:02:11;;;;;;;;;;;0.40;99.90;;;;;;6287328;22;19994;-89
2022/12/11 08:04:37;;;;;;;;;;;0.40;99.90;;;;;;6312270;22;19917;-90
2022/12/11 08:07:03;;;;;;;;;;;0.40;99.90;;;;;;6286904;22;19915;-89
2022/12/11 08:09:28;;;;;;;;;;;0.40;99.90;;;;;;6286784;22;19960;-91
2022/12/11 08:12:31;;;;;;;;;;;0.40;99.90;;;;;;6286535;22;19960;-89
2022/12/11 08:15:28;;;;;;;;;;;0.40;99.90;;;;;;6312923;22;19938;-91
2022/12/11 08:18:05;;;;;;;;;;;0.40;99.90;;;;;;6311649;22;19915;-91
2022/12/11 08:20:31;;;;;;;;;;;0.40;99.90;;;;;;6285895;22;20021;-89
2022/12/11 08:22:57;;;;;;;;;;;0.40;99.90;;;;;;6285749;22;20048;-92
2022/12/11 08:25:22;;;;;;;;;;;0.50;99.90;;;;;;6285760;22;19914;-90
2022/12/11 08:27:48;;;;;;;;;;;0.50;99.90;;;;;;6285593;22;19922;-90
2022/12/11 08:30:14;;;;;;;;;;;0.50;99.90;;;;;;6285628;22;19914;-91
2022/12/11 08:32:58;;;;;;;;;;;0.50;99.90;;;;;;6286410;22;19919;-89
2022/12/11 08:35:24;;;;;;;;;;;0.50;99.90;;;;;;6285659;22;19965;-90
2022/12/11 08:37:50;;;;;;;;;;;0.50;99.90;;;;;;6285509;22;19919;-90
2022/12/11 08:40:15;;;;;;;;;;;0.50;99.90;;;;;;6285483;22;19926;-90
2022/12/11 08:46:24;;;;;;;;;;;0.50;99.90;;;;;;6338173;22;19909;-91
2022/12/11 08:48:50;;;;;;;;;;;0.50;99.90;;;;;;6286053;22;20351;-91
2022/12/11 08:51:17;;;;;;;;;;;0.50;99.90;;;;;;6286698;22;19914;-90
2022/12/11 08:53:43;;;;;;;;;;;0.50;99.90;;;;;;6286757;22;19916;-92
2022/12/11 08:56:10;;;;;;;;;;;0.50;99.90;;;;;;6312252;22;19958;-92
2022/12/11 08:58:36;;;;;;;;;;;0.60;99.90;;;;;;6286515;22;19989;-90
2022/12/11 09:01:20;;;;;;;;;;;0.60;99.90;;;;;;6286652;22;19937;-90
2022/12/11 09:03:46;;;;;;;;;;;0.60;99.90;;;;;;6312116;22;20324;-91
2022/12/11 09:06:13;;;;;;;;;;;0.50;99.90;;;;;;6286648;22;19921;-91
2022/12/11 09:08:39;;;;;;;;;;;0.50;99.90;;;;;;6286281;22;19957;-89
2022/12/11 09:11:36;;;;;;;;;;;0.60;99.90;;;;;;6287676;22;19914;-90
2022/12/11 09:17:36;;;;;;;;;;;0.50;99.90;;;;;;6342059;22;19937;-92
2022/12/11 09:20:02;;;;;;;;;;;0.50;99.90;;;;;;6287924;22;20316;-91
2022/12/11 09:22:28;;;;;;;;;;;0.50;99.90;;;;;;6288425;22;20234;-91
2022/12/11 09:24:53;;;;;;;;;;;0.60;99.90;;;;;;6262673;22;19922;-90
2022/12/11 09:27:20;;;;;;;;;;;0.50;99.90;;;;;;6288232;22;19918;-90
2022/12/11 09:29:45;;;;;;;;;;;0.50;99.90;;;;;;6288164;22;19915;-90
2022/12/11 09:32:26;;;;;;;;;;;0.60;99.90;;;;;;6289514;22;19960;-90
2022/12/11 09:34:52;;;;;;;;;;;0.50;99.90;;;;;;6288918;22;19914;-90
2022/12/11 09:37:19;;;;;;;;;;;0.50;99.90;;;;;;6288730;22;20015;-92
2022/12/11 09:39:45;;;;;;;;;;;0.50;99.90;;;;;;6288848;22;19918;-90
2022/12/11 09:46:10;;;;;;;;;;;0.60;99.90;;;;;;6341847;22;20322;-92
2022/12/11 09:48:37;;;;;;;;;;;0.50;99.90;;;;;;6313988;22;19921;-91
2022/12/11 09:51:07;;;;;;;;;;;0.60;99.90;;;;;;6288180;22;20377;-92
2022/12/11 09:53:34;;;;;;;;;;;0.60;99.90;;;;;;6313597;22;19985;-90
2022/12/11 09:55:59;;;;;;;;;;;0.50;99.90;;;;;;6287821;22;19925;-91
2022/12/11 09:58:37;;;;;;;;;;;0.60;99.90;;;;;;6288050;22;19993;-91
2022/12/11 10:01:33;;;;;;;;;;;0.60;99.90;;;;;;6288285;22;19949;-91
2022/12/11 10:03:59;;;;;;;;;;;0.60;99.90;;;;;;6206823;22;19947;-90
2022/12/11 10:06:29;;;;;;;;;;;0.60;99.90;;;;;;6288044;22;19914;-88
2022/12/11 10:09:07;;;;;;;;;;;0.60;99.90;;;;;;6288052;22;19910;-91
2022/12/11 10:18:01;;;;;;;;;;;0.60;99.90;;;;;;6313234;22;19946;-91
2022/12/11 10:20:33;;;;;;;;;;;0.60;99.90;;;;;;6288007;22;19914;-90
2022/12/11 10:23:00;;;;;;;;;;;0.70;99.90;;;;;;6287353;22;20017;-92
2022/12/11 10:25:27;;;;;;;;;;;0.70;99.90;;;;;;6287845;22;19915;-92
2022/12/11 10:27:53;;;;;;;;;;;0.70;99.90;;;;;;6312116;22;19936;-89
2022/12/11 10:32:57;;;;;;;;;;;0.70;99.90;;;;;;6340361;22;20260;-88
2022/12/11 10:35:22;;;;;;;;;;;0.60;99.90;;;;;;6287065;22;19933;-89
2022/12/11 10:37:48;;;;;;;;;;;0.70;99.90;;;;;;6287294;22;19914;-89
2022/12/11 10:40:15;;;;;;;;;;;0.70;99.90;;;;;;6261826;22;19915;-93
2022/12/11 10:42:50;;;;;;;;;;;0.70;99.90;;;;;;6287215;22;19960;-90
2022/12/11 10:45:15;;;;;;;;;;;0.70;99.90;;;;;;6287480;22;19914;-88
2022/12/11 10:47:41;;;;;;;;;;;0.70;99.90;;;;;;6287130;22;19981;-95
2022/12/11 10:50:06;;;;;;;;;;;0.70;99.90;;;;;;6287414;22;20291;-96
2022/12/11 10:52:43;;;;;;;;;;;0.70;99.90;;;;;;6261645;22;19911;-90
2022/12/11 10:55:20;;;;;;;;;;;0.70;99.90;;;;;;6313451;22;19921;-91
2022/12/11 10:57:52;;;;;;;;;;;0.70;99.90;;;;;;6289622;22;19915;-89
2022/12/11 11:00:49;;;;;;;;;;;0.70;99.90;;;;;;6317358;22;19957;-94
2022/12/11 11:03:34;;;;;;;;;;;0.70;99.90;;;;;;6323300;22;19920;-92
2022/12/11 11:06:04;;;;;;;;;;;0.80;99.90;;;;;;6296746;22;19914;-93
2022/12/11 11:08:36;;;;;;;;;;;0.80;99.90;;;;;;6313453;22;20347;-93
2022/12/11 11:11:02;;;;;;;;;;;0.80;99.90;;;;;;6286527;22;19925;-89
2022/12/11 11:13:29;;;;;;;;;;;0.70;99.90;;;;;;6312941;22;19989;-88
2022/12/11 11:19:21;;;;;;;;;;;0.80;99.90;;;;;;6244952;23;19915;-89
2022/12/11 11:21:48;;;;;;;;;;;0.80;99.90;;;;;;6194870;23;20001;-90
2022/12/11 11:24:23;;;;;;;;;;;0.80;99.90;;;;;;6220421;23;19915;-96
2022/12/11 11:26:48;;;;;;;;;;;0.80;99.90;;;;;;6219797;23;19918;-95
2022/12/11 11:29:42;;;;;;;;;;;0.80;99.90;;;;;;6194474;23;20226;-94
2022/12/11 11:32:19;;;;;;;;;;;0.80;99.90;;;;;;6193953;23;19916;-92
2022/12/11 11:34:44;;;;;;;;;;;0.80;99.90;;;;;;6193888;23;19966;-91
2022/12/11 11:37:24;;;;;;;;;;;0.80;99.90;;;;;;6194348;23;19915;-95
2022/12/11 11:39:52;;;;;;;;;;;0.80;99.90;;;;;;6194466;23;19915;-96
2022/12/11 11:42:19;;;;;;;;;;;0.80;99.90;;;;;;6194695;23;19923;-88
2022/12/11 11:45:20;;;;;;;;;;;0.80;99.90;;;;;;6194214;23;20341;-89
2022/12/11 11:48:12;;;;;;;;;;;0.80;99.90;;;;;;6100815;23;19999;-93
2022/12/11 11:50:53;;;;;;;;;;;0.80;99.90;;;;;;6181033;22;20435;-94
2022/12/11 11:53:29;;;;;;;;;;;0.80;99.90;;;;;;6255083;22;19946;-86
2022/12/11 11:56:04;;;;;;;;;;;0.80;99.90;;;;;;6281333;22;19922;-94
2022/12/11 11:58:38;;;;;;;;;;;0.80;99.90;;;;;;6280910;22;19929;-86
2022/12/11 12:01:04;;;;;;;;;;;0.80;99.90;;;;;;6255260;22;19918;-85
2022/12/11 12:03:29;;;;;;;;;;;0.90;99.90;;;;;;6280931;22;19993;-86
2022/12/11 12:06:14;;;;;;;;;;;0.90;99.90;;;;;;6280622;22;19942;-85
2022/12/11 12:08:42;;;;;;;;;;;0.90;99.90;;;;;;6280482;22;19915;-86
2022/12/11 12:11:08;;;;;;;;;;;0.90;99.90;;;;;;6280989;22;19956;-89
2022/12/11 12:14:00;;;;;;;;;;;0.90;99.90;;;;;;6280486;22;19993;-86
2022/12/11 12:16:41;;;;;;;;;;;0.90;99.90;;;;;;6248878;22;19925;-85
2022/12/11 12:19:25;;;;;;;;;;;0.90;99.90;;;;;;6280593;22;20270;-86
2022/12/11 12:21:51;;;;;;;;;;;0.90;99.90;;;;;;6308238;22;19990;-93
2022/12/11 12:24:17;;;;;;;;;;;0.90;99.90;;;;;;6308385;22;20252;-88
2022/12/11 12:26:45;;;;;;;;;;;1.00;99.90;;;;;;6308426;22;19990;-93
2022/12/11 12:29:20;;;;;;;;;;;0.90;99.90;;;;;;6281369;22;19964;-96
2022/12/11 12:31:45;;;;;;;;;;;0.90;99.90;;;;;;6282410;22;19938;-89
2022/12/11 12:34:30;;;;;;;;;;;0.90;99.90;;;;;;6286773;22;19914;-89
2022/12/11 12:36:55;;;;;;;;;;;0.90;99.90;;;;;;6312347;22;20340;-92
2022/12/11 12:39:30;;;;;;;;;;;1.00;99.90;;;;;;6288108;22;19914;-96
2022/12/11 12:42:01;;;;;;;;;;;1.00;99.90;;;;;;6291865;22;19921;-89
2022/12/11 12:44:29;;;;;;;;;;;0.90;99.90;;;;;;6344652;22;19914;-96
2022/12/11 12:47:01;;;;;;;;;;;0.90;99.90;;;;;;6314490;22;19915;-96
2022/12/11 12:49:35;;;;;;;;;;;0.90;99.90;;;;;;6316224;22;19914;-88
2022/12/11 12:52:02;;;;;;;;;;;1.00;99.90;;;;;;6314804;22;20347;-94
2022/12/11 12:54:29;;;;;;;;;;;1.00;99.90;;;;;;6314151;22;19914;-94
2022/12/11 12:56:55;;;;;;;;;;;1.00;99.90;;;;;;6342100;22;19922;-87
2022/12/11 12:59:22;;;;;;;;;;;1.00;99.90;;;;;;6314909;22;19929;-93
2022/12/11 13:01:51;;;;;;;;;;;1.00;99.90;;;;;;6263057;22;20324;-92
2022/12/11 13:04:35;;;;;;;;;;;1.00;99.90;;;;;;6288525;22;19945;-94
2022/12/11 13:07:33;;;;;;;;;;;1.00;99.90;;;;;;6315418;22;19915;-91
2022/12/11 13:10:05;;;;;;;;;;;1.00;99.90;;;;;;6266025;22;19915;-92
2022/12/11 13:12:42;;;;;;;;;;;1.00;99.90;;;;;;6292035;22;20316;-90
2022/12/11 13:15:26;;;;;;;;;;;1.00;99.90;;;;;;6291220;22;19937;-91
2022/12/11 13:17:52;;;;;;;;;;;1.00;99.90;;;;;;6294152;22;19915;-90
2022/12/11 13:20:19;;;;;;;;;;;1.00;99.90;;;;;;6329860;22;19989;-89
2022/12/11 13:22:54;;;;;;;;;;;1.00;99.90;;;;;;6317381;22;19936;-90
2022/12/11 13:25:24;;;;;;;;;;;1.00;99.90;;;;;;6295526;22;19950;-93
2022/12/11 13:27:50;;;;;;;;;;;1.00;99.90;;;;;;6316738;22;20377;-90
2022/12/11 13:30:19;;;;;;;;;;;0.90;99.90;;;;;;6342564;22;19910;-91
2022/12/11 13:32:59;;;;;;;;;;;1.00;99.90;;;;;;6292756;22;20035;-94
2022/12/11 13:35:25;;;;;;;;;;;1.00;99.90;;;;;;6346615;22;20005;-88
2022/12/11 13:37:52;;;;;;;;;;;1.00;99.90;;;;;;6291724;22;19993;-88
2022/12/11 13:40:21;;;;;;;;;;;0.90;99.90;;;;;;6315569;22;20316;-89
2022/12/11 13:42:54;;;;;;;;;;;1.00;99.90;;;;;;6315665;22;19921;-89
2022/12/11 13:45:26;;;;;;;;;;;1.00;99.90;;;;;;6345328;22;20248;-96
2022/12/11 13:47:53;;;;;;;;;;;1.00;99.90;;;;;;6294933;22;19914;-87
2022/12/11 13:50:29;;;;;;;;;;;1.00;99.90;;;;;;6326873;22;19917;-88
2022/12/11 13:55:31;;;;;;;;;;;1.00;99.90;;;;;;6368155;22;19914;-93
2022/12/11 13:57:57;;;;;;;;;;;1.00;99.90;;;;;;6347009;22;19914;-92
2022/12/11 14:00:24;;;;;;;;;;;1.00;99.90;;;;;;6345407;22;19993;-92
2022/12/11 14:02:50;;;;;;;;;;;1.00;99.90;;;;;;6318751;22;19914;-87
2022/12/11 14:05:16;;;;;;;;;;;1.00;99.90;;;;;;6371975;22;19921;-89
2022/12/11 14:07:52;;;;;;;;;;;1.00;99.90;;;;;;6371014;22;19914;-88
2022/12/11 14:10:19;;;;;;;;;;;1.00;99.90;;;;;;6371365;22;19974;-86
2022/12/11 14:12:47;;;;;;;;;;;1.00;99.90;;;;;;6371273;22;19949;-96
2022/12/11 14:15:14;;;;;;;;;;;1.00;99.90;;;;;;6372765;22;19914;-95
2022/12/11 14:17:40;;;;;;;;;;;1.00;99.90;;;;;;6371833;22;20289;-89
2022/12/11 14:22:41;;;;;;;;;;;1.00;99.90;;;;;;6340794;22;19976;-92
2022/12/11 14:25:17;;;;;;;;;;;1.00;99.90;;;;;;6262695;22;20324;-93
2022/12/11 14:28:03;;;;;;;;;;;1.00;99.90;;;;;;6288212;22;19914;-85
2022/12/11 14:30:30;;;;;;;;;;;1.00;99.90;;;;;;6313812;22;19922;-91
2022/12/11 14:32:57;;;;;;;;;;;0.90;99.90;;;;;;6287601;22;19914;-91
2022/12/11 14:35:28;;;;;;;;;;;0.90;99.90;;;;;;6287349;22;19915;-89
2022/12/11 14:37:54;;;;;;;;;;;0.90;99.90;;;;;;6340421;22;19915;-88
2022/12/11 14:40:23;;;;;;;;;;;1.00;99.90;;;;;;6317499;22;19914;-89
2022/12/11 14:43:11;;;;;;;;;;;0.90;99.90;;;;;;6313358;22;19985;-87
2022/12/11 14:46:05;;;;;;;;;;;0.90;99.90;;;;;;6286687;22;19933;-87
2022/12/11 14:48:50;;;;;;;;;;;0.90;99.90;;;;;;6314530;22;20266;-89
2022/12/11 14:51:18;;;;;;;;;;;1.00;99.90;;;;;;6319923;22;19918;-96
2022/12/11 14:53:46;;;;;;;;;;;1.00;99.90;;;;;;6316778;22;19990;-88
2022/12/11 14:56:16;;;;;;;;;;;0.90;99.90;;;;;;6322010;22;19918;-93
2022/12/11 14:58:59;;;;;;;;;;;0.90;99.90;;;;;;6348210;22;19914;-89
2022/12/11 15:04:02;;;;;;;;;;;0.90;99.90;;;;;;6340307;22;19914;-94
2022/12/11 15:06:29;;;;;;;;;;;0.90;99.90;;;;;;6288364;22;19914;-87
2022/12/11 15:08:55;;;;;;;;;;;0.90;99.90;;;;;;6316890;22;19936;-96
2022/12/11 15:11:22;;;;;;;;;;;0.90;99.90;;;;;;6313810;22;19918;-87
2022/12/11 15:13:54;;;;;;;;;;;0.90;99.90;;;;;;6315271;22;19914;-87
2022/12/11 15:16:44;;;;;;;;;;;0.90;99.90;;;;;;6317199;22;19914;-92
2022/12/11 15:19:30;;;;;;;;;;;0.90;99.90;;;;;;6316002;22;19918;-88
2022/12/11 15:22:24;;;;;;;;;;;0.90;99.90;;;;;;6314441;22;19997;-90
2022/12/11 15:24:51;;;;;;;;;;;0.90;99.90;;;;;;6313920;22;20278;-93
2022/12/11 15:27:23;;;;;;;;;;;0.90;99.90;;;;;;6287667;22;19968;-95
2022/12/11 15:29:49;;;;;;;;;;;0.90;99.90;;;;;;6287049;22;19925;-90
2022/12/11 15:32:19;;;;;;;;;;;0.90;99.90;;;;;;6287522;22;19985;-91
2022/12/11 15:34:45;;;;;;;;;;;0.90;99.90;;;;;;6311578;22;19943;-91
2022/12/11 15:37:34;;;;;;;;;;;0.90;99.90;;;;;;6313058;22;19955;-90
2022/12/11 15:40:55;;;;;;;;;;;0.90;99.90;;;;;;6313158;22;19989;-94
2022/12/11 15:43:21;;;;;;;;;;;0.90;99.90;;;;;;6312668;22;19937;-90
2022/12/11 15:45:46;;;;;;;;;;;0.90;99.90;;;;;;6311236;22;20332;-92
2022/12/11 15:48:12;;;;;;;;;;;0.90;99.90;;;;;;6284510;22;19914;-90
2022/12/11 15:50:38;;;;;;;;;;;0.90;99.90;;;;;;6285019;22;19932;-91
2022/12/11 15:53:24;;;;;;;;;;;0.90;99.90;;;;;;6286549;22;19972;-91
2022/12/11 15:55:50;;;;;;;;;;;0.90;99.90;;;;;;6313506;22;19914;-88
2022/12/11 15:58:18;;;;;;;;;;;0.90;99.90;;;;;;6288552;22;19961;-95
2022/12/11 16:01:03;;;;;;;;;;;0.90;99.90;;;;;;6306749;22;19915;-93
2022/12/11 16:03:29;;;;;;;;;;;0.90;99.90;;;;;;6323747;22;19964;-92
2022/12/11 16:05:55;;;;;;;;;;;0.90;99.90;;;;;;6326625;22;19915;-94
2022/12/11 16:08:21;;;;;;;;;;;0.90;99.90;;;;;;6300266;22;19980;-95
2022/12/11 16:10:47;;;;;;;;;;;0.90;99.90;;;;;;6285700;22;19954;-94
2022/12/11 16:13:13;;;;;;;;;;;0.80;99.90;;;;;;6312119;22;19922;-93
2022/12/11 16:15:42;;;;;;;;;;;0.90;99.90;;;;;;6282680;22;19918;-93
2022/12/11 16:18:09;;;;;;;;;;;0.90;99.90;;;;;;6313611;22;19914;-95
2022/12/11 16:20:35;;;;;;;;;;;0.90;99.90;;;;;;6287128;22;19926;-92
2022/12/11 16:23:01;;;;;;;;;;;0.90;99.90;;;;;;6313689;22;19945;-96
2022/12/11 16:25:27;;;;;;;;;;;1.00;99.90;;;;;;6312979;22;19914;-93
2022/12/11 16:27:56;;;;;;;;;;;0.90;99.90;;;;;;6287141;22;19914;-95
2022/12/11 16:30:22;;;;;;;;;;;0.90;99.90;;;;;;6311604;22;19914;-87
2022/12/11 16:32:48;;;;;;;;;;;0.90;99.90;;;;;;6315412;22;20328;-95
2022/12/11 16:35:14;;;;;;;;;;;0.90;99.90;;;;;;6288169;22;19914;-96
2022/12/11 16:37:40;;;;;;;;;;;0.90;99.90;;;;;;6288696;22;19915;-92
2022/12/11 16:50:27;;;;;;;;;;;0.90;99.90;;;;;;6370981;22;19914;-91
2022/12/11 16:52:52;;;;;;;;;;;0.90;99.90;;;;;;6317713;22;19914;-94
2022/12/11 18:18:55;;;;;;;;;;;0.90;99.90;;;;;;6405740;22;19913;-89
